Terminal Aerodrome Forecast
Issued by NWS Shreveport, LA

Home | Current Version | Previous Version | Text Only | Print | Product List | Glossary On
Versions: 1 2 3 4 5 6 7 8 9 10 11 12 13 14 15 16 17 18
491
FTUS44 KSHV 011132
TAFGGG
TAF
KGGG 011132Z 0112/0212 03006KT P6SM SKC
      TEMPO 0115/0118 BKN030
     FM011800 05007KT P6SM BKN035
     FM020000 09006KT P6SM VCTS BKN045CB
     FM020600 VRB05KT P6SM VCTS BKN015CB=

USA.gov is the U.S. government's official web portal to all federal, state and local government web resources and services.